createdAt,value
2017-08-20T00:01:50.640Z,12.70
2017-08-20T00:04:16.964Z,12.60
2017-08-20T00:06:43.236Z,12.60
2017-08-20T00:09:09.532Z,12.50
2017-08-20T00:11:35.824Z,12.50
2017-08-20T00:14:02.112Z,12.60
2017-08-20T00:16:28.452Z,12.60
2017-08-20T00:18:54.733Z,12.60
2017-08-20T00:21:21.827Z,12.60
2017-08-20T00:23:48.156Z,12.60
2017-08-20T00:26:14.509Z,12.70
2017-08-20T00:28:40.803Z,12.60
2017-08-20T00:31:07.100Z,12.60
2017-08-20T00:33:33.378Z,12.60
2017-08-20T00:35:59.676Z,12.60
2017-08-20T00:38:26.062Z,12.70
2017-08-20T00:40:52.352Z,12.80
2017-08-20T00:43:18.636Z,12.80
2017-08-20T00:45:45.659Z,12.70
2017-08-20T00:48:11.964Z,12.70
2017-08-20T00:50:38.335Z,12.60
2017-08-20T00:53:05.364Z,12.40
2017-08-20T00:55:31.665Z,12.40
2017-08-20T00:57:58.031Z,12.30
2017-08-20T01:00:24.320Z,12.30
2017-08-20T01:02:50.623Z,12.20
2017-08-20T01:05:17.660Z,12.10
2017-08-20T01:07:44.700Z,12.10
2017-08-20T01:10:11.002Z,12.10
2017-08-20T01:12:37.302Z,12.10
2017-08-20T01:15:03.611Z,12.10
2017-08-20T01:17:29.934Z,12.10
2017-08-20T01:19:56.955Z,12.00
2017-08-20T01:22:23.236Z,12.00
2017-08-20T01:24:49.560Z,12.00
2017-08-20T01:27:15.855Z,12.00
2017-08-20T01:29:42.915Z,12.00
2017-08-20T01:32:09.200Z,12.00
2017-08-20T01:34:35.498Z,12.00
2017-08-20T01:37:01.797Z,12.00
2017-08-20T01:39:28.820Z,12.00
2017-08-20T01:41:55.132Z,12.00
2017-08-20T01:44:21.460Z,12.00
2017-08-20T01:46:47.779Z,12.00
2017-08-20T01:49:14.156Z,12.00
2017-08-20T01:51:41.192Z,12.10
2017-08-20T01:54:07.539Z,12.10
2017-08-20T01:56:33.959Z,12.20
2017-08-20T01:59:00.236Z,12.40
2017-08-20T02:01:26.540Z,12.50
2017-08-20T02:03:53.052Z,12.50
2017-08-20T02:06:19.332Z,12.60
2017-08-20T02:08:45.648Z,12.70
2017-08-20T02:11:12.087Z,12.70
2017-08-20T02:13:38.395Z,12.80
2017-08-20T02:16:05.392Z,12.90
2017-08-20T02:18:31.680Z,12.90
2017-08-20T02:20:58.716Z,12.90
2017-08-20T02:23:25.751Z,12.80
2017-08-20T02:25:52.093Z,12.80
2017-08-20T02:28:19.135Z,12.80
2017-08-20T02:30:45.435Z,12.80
2017-08-20T02:33:11.948Z,12.80
2017-08-20T02:35:38.343Z,12.90
2017-08-20T02:38:05.361Z,13.10
2017-08-20T02:40:31.676Z,13.10
2017-08-20T02:42:57.948Z,13.10
2017-08-20T02:45:24.231Z,13.10
2017-08-20T02:47:50.538Z,13.00
2017-08-20T02:50:16.833Z,12.90
2017-08-20T02:52:43.872Z,12.90
2017-08-20T02:55:10.313Z,12.80
2017-08-20T02:57:36.613Z,12.70
2017-08-20T03:00:02.902Z,12.60
2017-08-20T03:02:29.307Z,12.50
2017-08-20T03:04:55.593Z,12.50
2017-08-20T03:07:21.969Z,12.40
2017-08-20T03:09:49.011Z,12.30
2017-08-20T03:12:16.117Z,12.20
2017-08-20T03:14:42.446Z,12.20
2017-08-20T03:17:08.759Z,12.10
2017-08-20T03:19:35.063Z,11.90
2017-08-20T03:22:02.080Z,11.90
2017-08-20T03:24:29.131Z,11.80
2017-08-20T03:26:55.432Z,11.80
2017-08-20T03:29:21.766Z,12.00
2017-08-20T03:31:48.159Z,12.00
2017-08-20T03:34:14.581Z,12.00
2017-08-20T03:36:41.603Z,11.80
2017-08-20T03:39:07.899Z,11.80
2017-08-20T03:41:34.180Z,11.70
2017-08-20T03:44:03.140Z,11.70
2017-08-20T03:46:29.465Z,11.70
2017-08-20T03:48:55.745Z,11.70
2017-08-20T03:51:22.043Z,11.70
2017-08-20T03:53:48.328Z,11.70
2017-08-20T03:56:14.615Z,11.60
2017-08-20T03:58:41.622Z,11.40
2017-08-20T04:01:08.040Z,11.40
2017-08-20T04:03:34.342Z,11.40
2017-08-20T04:06:00.665Z,11.30
2017-08-20T04:08:27.636Z,11.20
2017-08-20T04:10:53.957Z,11.10
2017-08-20T04:13:20.255Z,11.10
2017-08-20T04:15:47.277Z,11.20
2017-08-20T04:18:13.777Z,11.10
2017-08-20T04:20:40.256Z,11.10
2017-08-20T04:23:06.617Z,11.10
2017-08-20T04:25:32.900Z,11.10
2017-08-20T04:27:59.217Z,11.20
2017-08-20T04:30:25.513Z,11.20
2017-08-20T04:32:51.835Z,11.20
2017-08-20T04:35:18.148Z,11.20
2017-08-20T04:37:45.196Z,11.30
2017-08-20T04:40:12.260Z,11.30
2017-08-20T04:42:38.708Z,11.30
2017-08-20T04:45:04.980Z,11.40
2017-08-20T04:47:31.264Z,11.40
2017-08-20T04:49:57.576Z,11.50
2017-08-20T04:52:24.588Z,11.90
2017-08-20T04:54:50.882Z,11.80
2017-08-20T04:57:17.187Z,12.10
2017-08-20T04:59:43.500Z,12.20
2017-08-20T05:02:10.536Z,12.50
2017-08-20T05:04:37.708Z,12.70
2017-08-20T05:07:04.812Z,13.10
2017-08-20T05:09:31.079Z,13.10
2017-08-20T05:11:58.116Z,15.00
2017-08-20T05:14:24.472Z,14.90
2017-08-20T05:16:50.795Z,16.40
2017-08-20T05:19:17.091Z,17.70
2017-08-20T05:21:43.395Z,19.10
2017-08-20T05:24:09.978Z,20.50
2017-08-20T05:26:37.282Z,22.70
2017-08-20T05:29:04.621Z,23.40
2017-08-20T05:31:30.940Z,23.40
2017-08-20T05:33:57.231Z,24.10
2017-08-20T05:36:24.310Z,25.60
2017-08-20T05:38:50.778Z,25.50
2017-08-20T05:41:17.133Z,26.30
2017-08-20T05:43:43.651Z,26.80
2017-08-20T05:46:10.063Z,27.40
2017-08-20T05:48:36.472Z,28.10
2017-08-20T05:51:02.819Z,28.80
2017-08-20T05:53:29.135Z,29.50
2017-08-20T05:55:55.589Z,29.90
2017-08-20T05:58:21.873Z,29.80
2017-08-20T06:00:48.175Z,30.00
2017-08-20T06:03:14.678Z,30.00
2017-08-20T06:05:41.076Z,30.30
2017-08-20T06:08:08.115Z,30.50
2017-08-20T06:10:34.380Z,30.50
2017-08-20T06:13:00.705Z,30.80
2017-08-20T06:15:27.162Z,31.00
2017-08-20T06:17:53.460Z,31.10
2017-08-20T06:20:19.974Z,31.30
2017-08-20T06:22:47.020Z,31.70
2017-08-20T06:25:14.055Z,31.50
2017-08-20T06:27:40.601Z,31.50
2017-08-20T06:30:07.767Z,29.50
2017-08-20T06:32:35.089Z,28.80
2017-08-20T06:35:01.358Z,28.70
2017-08-20T06:37:27.651Z,27.60
2017-08-20T06:39:53.948Z,27.10
2017-08-20T06:42:20.235Z,26.60
2017-08-20T06:44:47.445Z,25.80
2017-08-20T06:47:13.816Z,25.80
2017-08-20T06:49:40.107Z,26.80
2017-08-20T06:52:06.428Z,28.30
2017-08-20T06:54:32.688Z,29.20
2017-08-20T06:56:58.964Z,30.00
2017-08-20T06:59:25.271Z,31.00
2017-08-20T07:01:52.292Z,31.90
2017-08-20T07:04:19.381Z,31.30
2017-08-20T07:06:45.689Z,31.20
2017-08-20T07:09:12.785Z,32.90
2017-08-20T07:11:39.209Z,32.90
2017-08-20T07:14:05.613Z,34.40
2017-08-20T07:16:31.916Z,35.70
2017-08-20T07:18:58.214Z,36.60
2017-08-20T07:21:24.568Z,37.50
2017-08-20T07:23:51.097Z,38.30
2017-08-20T07:26:17.373Z,38.40
2017-08-20T07:28:43.695Z,38.80
2017-08-20T07:31:10.768Z,38.40
2017-08-20T07:33:37.077Z,38.40
2017-08-20T07:36:03.403Z,37.70
2017-08-20T07:38:29.748Z,36.40
2017-08-20T07:40:56.056Z,35.20
2017-08-20T07:43:23.090Z,34.70
2017-08-20T07:45:50.185Z,35.20
2017-08-20T07:48:16.500Z,35.10
2017-08-20T07:50:42.852Z,34.40
2017-08-20T07:53:09.186Z,34.00
2017-08-20T07:55:35.505Z,34.00
2017-08-20T07:58:01.809Z,34.50
2017-08-20T08:00:28.168Z,35.90
2017-08-20T08:02:54.498Z,37.30
2017-08-20T08:05:20.884Z,38.30
2017-08-20T08:07:47.974Z,40.70
2017-08-20T08:10:14.305Z,40.60
2017-08-20T08:12:40.612Z,42.00
2017-08-20T08:15:06.943Z,41.70
2017-08-20T08:17:33.267Z,42.00
2017-08-20T08:20:00.408Z,43.30
2017-08-20T08:22:27.481Z,43.90
2017-08-20T08:24:53.861Z,43.80
2017-08-20T08:27:20.158Z,42.50
2017-08-20T08:29:46.611Z,40.30
2017-08-20T08:32:12.977Z,40.30
2017-08-20T08:34:40.064Z,40.00
2017-08-20T08:37:06.411Z,40.00
2017-08-20T08:39:32.742Z,40.40
2017-08-20T08:41:59.088Z,41.80
2017-08-20T08:44:25.394Z,42.90
2017-08-20T08:46:51.704Z,41.70
2017-08-20T08:49:18.005Z,41.10
2017-08-20T08:51:45.131Z,42.50
2017-08-20T08:54:11.436Z,42.50
2017-08-20T08:56:37.742Z,43.70
2017-08-20T08:59:04.068Z,43.50
2017-08-20T09:01:30.410Z,41.90
2017-08-20T09:03:56.852Z,39.30
2017-08-20T09:06:23.179Z,38.40
2017-08-20T09:08:49.469Z,37.40
2017-08-20T09:11:16.644Z,35.00
2017-08-20T09:13:42.944Z,34.90
2017-08-20T09:16:09.313Z,34.30
2017-08-20T09:18:35.604Z,32.70
2017-08-20T09:21:02.683Z,32.70
2017-08-20T09:23:28.980Z,32.60
2017-08-20T09:25:55.276Z,33.60
2017-08-20T09:28:21.628Z,35.50
2017-08-20T09:30:47.933Z,35.90
2017-08-20T09:33:14.243Z,35.20
2017-08-20T09:35:40.600Z,35.30
2017-08-20T09:38:06.920Z,36.20
2017-08-20T09:40:33.251Z,37.20
2017-08-20T09:42:59.540Z,37.80
2017-08-20T09:45:26.568Z,37.40
2017-08-20T09:47:52.908Z,37.30
2017-08-20T09:50:19.944Z,36.90
2017-08-20T09:52:46.284Z,36.80
2017-08-20T09:55:13.341Z,36.10
2017-08-20T09:57:40.394Z,34.70
2017-08-20T10:00:06.688Z,34.70
2017-08-20T10:02:32.978Z,33.00
2017-08-20T10:04:59.272Z,31.40
2017-08-20T10:07:25.807Z,30.00
2017-08-20T10:09:52.132Z,29.00
2017-08-20T10:12:19.274Z,28.20
2017-08-20T10:14:45.768Z,27.90
2017-08-20T10:17:12.181Z,27.70
2017-08-20T10:19:38.688Z,27.70
2017-08-20T10:22:04.973Z,27.80
2017-08-20T10:24:31.429Z,27.90
2017-08-20T10:26:57.746Z,27.80
2017-08-20T10:29:24.088Z,27.30
2017-08-20T10:31:50.420Z,26.70
2017-08-20T10:34:17.499Z,25.30
2017-08-20T10:36:44.592Z,24.80
2017-08-20T10:39:10.896Z,24.70
2017-08-20T10:41:37.192Z,24.60
2017-08-20T10:44:04.267Z,25.10
2017-08-20T10:46:30.533Z,25.10
2017-08-20T10:48:56.866Z,25.30
2017-08-20T10:51:23.147Z,25.50
2017-08-20T10:53:49.464Z,25.50
2017-08-20T10:56:16.506Z,25.40
2017-08-20T10:58:43.581Z,25.50
2017-08-20T11:01:09.885Z,25.60
2017-08-20T11:03:36.927Z,25.10
2017-08-20T11:06:03.992Z,24.70
2017-08-20T11:08:30.363Z,24.70
2017-08-20T11:10:56.748Z,24.40
2017-08-20T11:13:23.832Z,23.90
2017-08-20T11:15:50.172Z,23.90
2017-08-20T11:18:16.477Z,24.00
2017-08-20T11:20:42.780Z,24.00
2017-08-20T11:23:09.824Z,24.30
2017-08-20T11:25:36.869Z,24.40
2017-08-20T11:28:03.943Z,24.50
2017-08-20T11:30:30.225Z,24.50
2017-08-20T11:32:56.546Z,24.50
2017-08-20T11:35:22.888Z,24.30
2017-08-20T11:37:49.199Z,24.20
2017-08-20T11:40:15.476Z,24.00
2017-08-20T11:42:42.526Z,23.80
2017-08-20T11:45:09.560Z,23.90
2017-08-20T11:47:36.621Z,24.00
2017-08-20T11:50:03.656Z,23.90
2017-08-20T11:52:30.132Z,23.90
2017-08-20T11:54:56.430Z,23.70
2017-08-20T11:57:23.530Z,23.70
2017-08-20T11:59:50.048Z,23.70
2017-08-20T12:02:16.523Z,23.70
2017-08-20T12:04:43.575Z,23.70
2017-08-20T12:07:10.024Z,23.70
2017-08-20T12:09:37.076Z,23.50
2017-08-20T12:12:11.084Z,23.50
2017-08-20T12:14:38.148Z,23.40
2017-08-20T12:17:04.474Z,23.40
2017-08-20T12:19:30.818Z,23.30
2017-08-20T12:21:57.192Z,23.30
2017-08-20T12:24:23.478Z,23.30
2017-08-20T12:26:49.773Z,23.10
2017-08-20T12:29:16.869Z,22.70
2017-08-20T12:31:43.158Z,22.70
2017-08-20T12:34:10.220Z,22.40
2017-08-20T12:36:36.549Z,22.40
2017-08-20T12:39:02.959Z,22.10
2017-08-20T12:41:30.029Z,22.00
2017-08-20T12:43:56.352Z,22.00
2017-08-20T12:46:23.437Z,22.00
2017-08-20T12:48:49.762Z,22.00
2017-08-20T12:51:16.273Z,22.20
2017-08-20T12:53:42.624Z,22.30
2017-08-20T12:56:08.989Z,22.40
2017-08-20T12:58:35.349Z,22.60
2017-08-20T13:01:02.396Z,22.80
2017-08-20T13:03:29.468Z,22.80
2017-08-20T13:05:55.740Z,22.80
2017-08-20T13:08:22.068Z,22.80
2017-08-20T13:10:48.368Z,22.80
2017-08-20T13:13:14.867Z,22.80
2017-08-20T13:15:41.961Z,23.00
2017-08-20T13:18:08.287Z,22.90
2017-08-20T13:20:34.622Z,23.20
2017-08-20T13:23:00.937Z,23.40
2017-08-20T13:25:27.259Z,23.70
2017-08-20T13:27:53.572Z,23.70
2017-08-20T13:30:20.608Z,23.80
2017-08-20T13:32:47.764Z,23.70
2017-08-20T13:35:14.094Z,23.70
2017-08-20T13:37:41.172Z,23.50
2017-08-20T13:40:07.468Z,23.50
2017-08-20T13:42:34.554Z,23.30
2017-08-20T13:45:00.880Z,23.30
2017-08-20T13:47:27.200Z,23.20
2017-08-20T13:49:53.520Z,23.10
2017-08-20T13:52:20.564Z,23.10
2017-08-20T13:54:47.635Z,23.20
2017-08-20T13:57:13.920Z,23.20
2017-08-20T13:59:40.281Z,23.20
2017-08-20T14:02:06.603Z,23.20
2017-08-20T14:04:33.644Z,23.10
2017-08-20T14:07:00.700Z,23.10
2017-08-20T14:09:27.729Z,23.20
2017-08-20T14:11:54.813Z,23.40
2017-08-20T14:14:21.125Z,23.40
2017-08-20T14:16:47.497Z,23.50
2017-08-20T14:19:13.809Z,23.60
2017-08-20T14:21:40.107Z,23.80
2017-08-20T14:24:07.161Z,24.00
2017-08-20T14:26:34.332Z,24.00
2017-08-20T14:29:00.676Z,24.00
2017-08-20T14:31:26.970Z,24.10
2017-08-20T14:33:53.328Z,24.00
2017-08-20T14:36:19.631Z,24.00
2017-08-20T14:38:46.749Z,23.90
2017-08-20T14:41:13.060Z,23.80
2017-08-20T14:43:39.408Z,23.90
2017-08-20T14:46:05.726Z,23.90
2017-08-20T14:48:32.040Z,23.90
2017-08-20T14:50:58.453Z,23.90
2017-08-20T14:53:24.740Z,24.00
2017-08-20T14:55:51.071Z,24.00
2017-08-20T14:58:17.434Z,24.00
2017-08-20T15:00:43.762Z,24.00
2017-08-20T15:03:10.100Z,23.90
2017-08-20T15:05:36.403Z,23.80
2017-08-20T15:08:02.756Z,23.70
2017-08-20T15:10:29.053Z,23.60
2017-08-20T15:12:55.431Z,23.50
2017-08-20T15:15:21.820Z,23.40
2017-08-20T15:17:48.153Z,23.40
2017-08-20T15:20:14.521Z,23.30
2017-08-20T15:22:40.822Z,23.10
2017-08-20T15:25:07.144Z,23.00
2017-08-20T15:27:34.256Z,23.00
2017-08-20T15:30:00.608Z,23.00
2017-08-20T15:32:26.931Z,23.00
2017-08-20T15:34:53.289Z,22.90
2017-08-20T15:37:19.631Z,22.80
2017-08-20T15:39:46.700Z,22.60
2017-08-20T15:42:13.001Z,22.60
2017-08-20T15:44:39.290Z,22.60
2017-08-20T15:47:05.621Z,22.60
2017-08-20T15:49:32.004Z,22.50
2017-08-20T15:51:58.308Z,22.50
2017-08-20T15:54:24.665Z,22.40
2017-08-20T15:56:51.738Z,22.30
2017-08-20T15:59:18.087Z,22.30
2017-08-20T16:01:44.505Z,22.20
2017-08-20T16:04:10.835Z,22.20
2017-08-20T16:06:37.142Z,22.20
2017-08-20T16:09:03.529Z,22.10
2017-08-20T16:11:29.899Z,22.20
2017-08-20T16:13:56.220Z,22.10
2017-08-20T16:16:22.740Z,22.00
2017-08-20T16:18:49.038Z,21.90
2017-08-20T16:21:15.396Z,21.90
2017-08-20T16:23:41.708Z,21.80
2017-08-20T16:26:08.023Z,21.70
2017-08-20T16:28:34.347Z,21.50
2017-08-20T16:31:00.649Z,21.40
2017-08-20T16:33:26.964Z,21.30
2017-08-20T16:35:54.033Z,21.10
2017-08-20T16:38:20.320Z,21.10
2017-08-20T16:40:46.623Z,21.10
2017-08-20T16:43:12.895Z,21.00
2017-08-20T16:45:40.114Z,21.10
2017-08-20T16:48:06.420Z,21.00
2017-08-20T16:50:32.736Z,20.90
2017-08-20T16:52:59.069Z,20.80
2017-08-20T16:55:25.371Z,20.80
2017-08-20T16:57:51.705Z,20.80
2017-08-20T17:00:18.883Z,20.70
2017-08-20T17:02:45.200Z,20.70
2017-08-20T17:05:11.525Z,20.70
2017-08-20T17:07:38.679Z,20.80
2017-08-20T17:10:04.987Z,20.80
2017-08-20T17:12:32.191Z,20.60
2017-08-20T17:14:58.552Z,20.60
2017-08-20T17:17:24.873Z,20.60
2017-08-20T17:19:51.192Z,20.60
2017-08-20T17:22:17.532Z,20.50
2017-08-20T17:24:43.857Z,20.50
2017-08-20T17:27:10.185Z,20.40
2017-08-20T17:29:36.500Z,20.30
2017-08-20T17:32:02.816Z,20.20
2017-08-20T17:34:29.166Z,20.00
2017-08-20T17:36:55.423Z,20.00
2017-08-20T17:39:21.763Z,19.90
2017-08-20T17:41:48.042Z,19.70
2017-08-20T17:44:14.425Z,19.50
2017-08-20T17:46:40.700Z,19.40
2017-08-20T17:49:07.001Z,19.30
2017-08-20T17:51:34.076Z,19.10
2017-08-20T17:54:00.384Z,19.10
2017-08-20T17:56:26.743Z,19.00
2017-08-20T17:58:53.031Z,18.90
2017-08-20T18:01:20.121Z,18.60
2017-08-20T18:03:46.500Z,18.60
2017-08-20T18:06:12.791Z,18.50
2017-08-20T18:08:39.113Z,18.30
2017-08-20T18:11:05.513Z,18.30
2017-08-20T18:13:32.575Z,18.00
2017-08-20T18:15:58.908Z,18.00
2017-08-20T18:18:25.316Z,17.90
2017-08-20T18:20:52.412Z,17.60
2017-08-20T18:23:18.731Z,17.50
2017-08-20T18:25:45.097Z,17.50
2017-08-20T18:28:11.410Z,17.40
2017-08-20T18:30:37.749Z,17.30
2017-08-20T18:33:04.053Z,17.30
2017-08-20T18:35:30.389Z,17.20
2017-08-20T18:37:56.681Z,17.10
2017-08-20T18:40:23.766Z,17.00
2017-08-20T18:42:50.123Z,17.00
2017-08-20T18:45:16.466Z,16.90
2017-08-20T18:47:42.784Z,16.80
2017-08-20T18:50:09.108Z,16.60
2017-08-20T18:52:35.426Z,16.50
2017-08-20T18:55:01.737Z,16.40
2017-08-20T18:57:28.072Z,16.30
2017-08-20T18:59:54.399Z,16.20
2017-08-20T19:02:20.700Z,16.20
2017-08-20T19:04:47.767Z,16.10
2017-08-20T19:07:14.069Z,16.00
2017-08-20T19:09:41.176Z,16.00
2017-08-20T19:12:07.504Z,16.00
2017-08-20T19:14:33.830Z,15.90
2017-08-20T19:17:00.192Z,15.90
2017-08-20T19:19:26.489Z,15.80
2017-08-20T19:21:52.860Z,15.60
2017-08-20T19:24:19.175Z,15.50
2017-08-20T19:26:45.525Z,15.40
2017-08-20T19:29:12.579Z,15.30
2017-08-20T19:31:38.903Z,15.20
2017-08-20T19:34:05.983Z,15.10
2017-08-20T19:36:32.278Z,15.10
2017-08-20T19:38:59.320Z,15.00
2017-08-20T19:41:25.668Z,15.00
2017-08-20T19:43:52.739Z,15.30
2017-08-20T19:46:19.040Z,15.30
2017-08-20T19:48:46.125Z,15.40
2017-08-20T19:51:12.477Z,15.30
2017-08-20T19:53:38.780Z,15.40
2017-08-20T19:56:05.116Z,15.30
2017-08-20T19:58:31.425Z,15.30
2017-08-20T20:00:57.803Z,15.20
2017-08-20T20:03:24.136Z,15.30
2017-08-20T20:05:50.510Z,15.30
2017-08-20T20:08:16.825Z,15.20
2017-08-20T20:10:43.120Z,15.30
2017-08-20T20:13:09.429Z,15.30
2017-08-20T20:15:35.781Z,15.30
2017-08-20T20:18:02.220Z,15.30
2017-08-20T20:20:28.544Z,15.40
2017-08-20T20:22:54.964Z,15.40
2017-08-20T20:25:21.361Z,15.30
2017-08-20T20:27:47.743Z,15.30
2017-08-20T20:30:14.070Z,15.20
2017-08-20T20:32:40.401Z,15.10
2017-08-20T20:35:06.709Z,15.00
2017-08-20T20:37:33.029Z,14.80
2017-08-20T20:39:59.320Z,14.70
2017-08-20T20:42:25.635Z,14.60
2017-08-20T20:44:52.000Z,14.60
2017-08-20T20:47:19.092Z,14.40
2017-08-20T20:49:45.408Z,14.30
2017-08-20T20:52:11.759Z,14.30
2017-08-20T20:54:38.135Z,14.30
2017-08-20T20:57:05.200Z,14.20
2017-08-20T20:59:31.495Z,14.20
2017-08-20T21:01:57.813Z,14.10
2017-08-20T21:04:24.129Z,14.00
2017-08-20T21:06:50.479Z,14.10
2017-08-20T21:09:16.785Z,14.00
2017-08-20T21:11:43.119Z,14.00
2017-08-20T21:14:09.447Z,14.00
2017-08-20T21:16:36.126Z,14.00
2017-08-20T21:19:03.181Z,13.90
2017-08-20T21:21:30.368Z,13.80
2017-08-20T21:23:56.698Z,13.80
2017-08-20T21:26:23.027Z,13.80
2017-08-20T21:28:49.339Z,13.90
2017-08-20T21:31:15.656Z,13.90
2017-08-20T21:33:41.952Z,13.80
2017-08-20T21:36:08.308Z,13.80
2017-08-20T21:38:34.623Z,13.70
2017-08-20T21:41:00.956Z,13.70
2017-08-20T21:43:27.256Z,13.80
2017-08-20T21:45:53.543Z,13.70
2017-08-20T21:48:19.944Z,13.70
2017-08-20T21:50:46.372Z,13.60
2017-08-20T21:53:13.440Z,13.50
2017-08-20T21:55:40.500Z,13.50
2017-08-20T21:58:07.558Z,13.50
2017-08-20T22:00:33.972Z,13.50
2017-08-20T22:03:00.315Z,13.50
2017-08-20T22:05:26.579Z,13.50
2017-08-20T22:07:52.872Z,13.60
2017-08-20T22:10:19.191Z,13.60
2017-08-20T22:12:46.209Z,13.70
2017-08-20T22:15:12.552Z,13.70
2017-08-20T22:17:38.823Z,13.70
2017-08-20T22:20:05.108Z,13.70
2017-08-20T22:22:31.433Z,13.70
2017-08-20T22:24:58.474Z,13.50
2017-08-20T22:27:24.783Z,13.50
2017-08-20T22:29:51.102Z,13.50
2017-08-20T22:32:17.508Z,13.40
2017-08-20T22:34:43.847Z,13.40
2017-08-20T22:37:10.157Z,13.40
2017-08-20T22:39:37.184Z,13.30
2017-08-20T22:42:03.479Z,13.30
2017-08-20T22:44:29.764Z,13.50
2017-08-20T22:46:56.819Z,13.60
2017-08-20T22:49:24.028Z,13.60
2017-08-20T22:51:50.407Z,13.60
2017-08-20T22:54:16.683Z,13.50
2017-08-20T22:56:42.952Z,13.50
2017-08-20T22:59:09.280Z,13.50
2017-08-20T23:01:36.377Z,13.50
2017-08-20T23:04:02.709Z,13.50
2017-08-20T23:06:28.991Z,13.60
2017-08-20T23:08:55.288Z,13.80
2017-08-20T23:11:21.609Z,13.80
2017-08-20T23:13:47.924Z,13.70
2017-08-20T23:16:14.252Z,13.70
2017-08-20T23:18:40.565Z,13.70
2017-08-20T23:21:07.140Z,13.70
2017-08-20T23:23:33.451Z,13.70
2017-08-20T23:25:59.788Z,13.70
2017-08-20T23:28:26.075Z,13.70
2017-08-20T23:30:52.360Z,13.70
2017-08-20T23:33:18.680Z,13.70
2017-08-20T23:35:44.952Z,13.90
2017-08-20T23:38:12.239Z,13.90
2017-08-20T23:40:38.499Z,13.90
2017-08-20T23:43:04.783Z,13.90
2017-08-20T23:45:31.095Z,13.90
2017-08-20T23:47:58.127Z,13.90
2017-08-20T23:50:24.415Z,13.90
2017-08-20T23:52:50.745Z,13.80
2017-08-20T23:55:17.053Z,13.90
2017-08-20T23:57:43.347Z,13.80
